sensor_id;sensor_type;location;lat;lon;timestamp;P1;durP1;ratioP1;P2;durP2;ratioP2
14076;SDS011;7114;51.100;13.998;2024-01-30T00:02:18;25.05;;;10.45;;
14076;SDS011;7114;51.100;13.998;2024-01-30T00:04:45;25.98;;;10.45;;
14076;SDS011;7114;51.100;13.998;2024-01-30T00:07:11;26.00;;;10.13;;
14076;SDS011;7114;51.100;13.998;2024-01-30T00:09:38;26.88;;;10.02;;
14076;SDS011;7114;51.100;13.998;2024-01-30T00:12:05;26.57;;;10.53;;
14076;SDS011;7114;51.100;13.998;2024-01-30T00:14:32;25.05;;;9.75;;
14076;SDS011;7114;51.100;13.998;2024-01-30T00:16:58;25.27;;;10.07;;
14076;SDS011;7114;51.100;13.998;2024-01-30T00:19:24;26.75;;;10.85;;
14076;SDS011;7114;51.100;13.998;2024-01-30T00:21:52;27.27;;;10.93;;
14076;SDS011;7114;51.100;13.998;2024-01-30T00:24:18;24.90;;;9.87;;
14076;SDS011;7114;51.100;13.998;2024-01-30T00:26:45;24.02;;;9.85;;
14076;SDS011;7114;51.100;13.998;2024-01-30T00:29:11;24.38;;;9.52;;
14076;SDS011;7114;51.100;13.998;2024-01-30T00:31:44;25.05;;;9.88;;
14076;SDS011;7114;51.100;13.998;2024-01-30T00:34:10;22.83;;;9.65;;
14076;SDS011;7114;51.100;13.998;2024-01-30T00:36:36;24.90;;;10.10;;
14076;SDS011;7114;51.100;13.998;2024-01-30T00:39:04;24.40;;;9.63;;
14076;SDS011;7114;51.100;13.998;2024-01-30T00:41:33;27.17;;;10.15;;
14076;SDS011;7114;51.100;13.998;2024-01-30T00:44:00;26.10;;;10.07;;
14076;SDS011;7114;51.100;13.998;2024-01-30T00:46:26;24.25;;;10.07;;
14076;SDS011;7114;51.100;13.998;2024-01-30T00:48:52;26.70;;;10.10;;
14076;SDS011;7114;51.100;13.998;2024-01-30T00:51:19;24.15;;;9.80;;
14076;SDS011;7114;51.100;13.998;2024-01-30T00:53:45;23.02;;;9.88;;
14076;SDS011;7114;51.100;13.998;2024-01-30T00:56:12;26.42;;;10.27;;
14076;SDS011;7114;51.100;13.998;2024-01-30T00:58:39;24.70;;;9.65;;
14076;SDS011;7114;51.100;13.998;2024-01-30T01:01:05;25.87;;;10.53;;
14076;SDS011;7114;51.100;13.998;2024-01-30T01:03:32;27.50;;;10.10;;
14076;SDS011;7114;51.100;13.998;2024-01-30T01:05:58;27.77;;;9.35;;
14076;SDS011;7114;51.100;13.998;2024-01-30T01:08:25;25.08;;;9.23;;
14076;SDS011;7114;51.100;13.998;2024-01-30T01:10:51;21.80;;;9.32;;
14076;SDS011;7114;51.100;13.998;2024-01-30T01:13:20;24.33;;;9.27;;
14076;SDS011;7114;51.100;13.998;2024-01-30T01:15:46;25.23;;;9.55;;
14076;SDS011;7114;51.100;13.998;2024-01-30T01:18:12;23.02;;;9.13;;
14076;SDS011;7114;51.100;13.998;2024-01-30T01:20:38;26.67;;;9.75;;
14076;SDS011;7114;51.100;13.998;2024-01-30T01:23:05;24.52;;;9.93;;
14076;SDS011;7114;51.100;13.998;2024-01-30T01:25:31;21.60;;;9.00;;
14076;SDS011;7114;51.100;13.998;2024-01-30T01:27:57;23.52;;;9.38;;
14076;SDS011;7114;51.100;13.998;2024-01-30T01:30:27;26.65;;;9.73;;
14076;SDS011;7114;51.100;13.998;2024-01-30T01:32:54;23.35;;;9.43;;
14076;SDS011;7114;51.100;13.998;2024-01-30T01:35:21;24.10;;;9.45;;
14076;SDS011;7114;51.100;13.998;2024-01-30T01:37:49;24.10;;;9.27;;
14076;SDS011;7114;51.100;13.998;2024-01-30T01:40:19;24.38;;;9.57;;
14076;SDS011;7114;51.100;13.998;2024-01-30T01:42:46;24.85;;;9.30;;
14076;SDS011;7114;51.100;13.998;2024-01-30T01:45:13;29.27;;;10.23;;
14076;SDS011;7114;51.100;13.998;2024-01-30T01:47:41;28.10;;;10.50;;
14076;SDS011;7114;51.100;13.998;2024-01-30T01:50:07;24.30;;;9.53;;
14076;SDS011;7114;51.100;13.998;2024-01-30T01:52:35;30.67;;;10.07;;
14076;SDS011;7114;51.100;13.998;2024-01-30T01:55:02;25.92;;;9.80;;
14076;SDS011;7114;51.100;13.998;2024-01-30T01:57:28;26.92;;;9.85;;
14076;SDS011;7114;51.100;13.998;2024-01-30T01:59:55;25.98;;;10.00;;
14076;SDS011;7114;51.100;13.998;2024-01-30T02:02:21;24.50;;;9.87;;
14076;SDS011;7114;51.100;13.998;2024-01-30T02:04:50;27.15;;;9.95;;
14076;SDS011;7114;51.100;13.998;2024-01-30T02:07:17;23.35;;;10.10;;
14076;SDS011;7114;51.100;13.998;2024-01-30T02:09:43;27.77;;;10.50;;
14076;SDS011;7114;51.100;13.998;2024-01-30T02:12:09;22.85;;;9.40;;
14076;SDS011;7114;51.100;13.998;2024-01-30T02:14:43;24.63;;;9.30;;
14076;SDS011;7114;51.100;13.998;2024-01-30T02:17:10;25.10;;;9.95;;
14076;SDS011;7114;51.100;13.998;2024-01-30T02:19:36;25.58;;;9.52;;
14076;SDS011;7114;51.100;13.998;2024-01-30T02:22:04;24.35;;;9.77;;
14076;SDS011;7114;51.100;13.998;2024-01-30T02:24:30;25.58;;;9.75;;
14076;SDS011;7114;51.100;13.998;2024-01-30T02:26:57;24.00;;;9.80;;
14076;SDS011;7114;51.100;13.998;2024-01-30T02:29:23;25.23;;;10.05;;
14076;SDS011;7114;51.100;13.998;2024-01-30T02:31:49;26.38;;;9.95;;
14076;SDS011;7114;51.100;13.998;2024-01-30T02:34:15;23.38;;;9.88;;
14076;SDS011;7114;51.100;13.998;2024-01-30T02:36:42;25.27;;;9.68;;
14076;SDS011;7114;51.100;13.998;2024-01-30T02:39:10;24.10;;;9.97;;
14076;SDS011;7114;51.100;13.998;2024-01-30T02:41:36;25.50;;;9.70;;
14076;SDS011;7114;51.100;13.998;2024-01-30T02:44:02;24.75;;;10.50;;
14076;SDS011;7114;51.100;13.998;2024-01-30T02:46:29;24.58;;;9.38;;
14076;SDS011;7114;51.100;13.998;2024-01-30T02:48:55;27.45;;;9.85;;
14076;SDS011;7114;51.100;13.998;2024-01-30T02:51:22;26.43;;;9.53;;
14076;SDS011;7114;51.100;13.998;2024-01-30T02:53:48;26.15;;;10.07;;
14076;SDS011;7114;51.100;13.998;2024-01-30T02:56:16;25.83;;;9.50;;
14076;SDS011;7114;51.100;13.998;2024-01-30T02:58:42;28.67;;;10.07;;
14076;SDS011;7114;51.100;13.998;2024-01-30T03:01:08;23.92;;;9.57;;
14076;SDS011;7114;51.100;13.998;2024-01-30T03:03:34;24.37;;;9.73;;
14076;SDS011;7114;51.100;13.998;2024-01-30T03:06:01;30.50;;;10.73;;
14076;SDS011;7114;51.100;13.998;2024-01-30T03:08:27;25.98;;;10.02;;
14076;SDS011;7114;51.100;13.998;2024-01-30T03:10:53;26.15;;;10.25;;
14076;SDS011;7114;51.100;13.998;2024-01-30T03:13:21;27.48;;;10.30;;
14076;SDS011;7114;51.100;13.998;2024-01-30T03:15:48;24.50;;;9.47;;
14076;SDS011;7114;51.100;13.998;2024-01-30T03:18:14;27.63;;;10.68;;
14076;SDS011;7114;51.100;13.998;2024-01-30T03:20:41;27.23;;;9.77;;
14076;SDS011;7114;51.100;13.998;2024-01-30T03:23:07;23.88;;;9.15;;
14076;SDS011;7114;51.100;13.998;2024-01-30T03:25:33;25.95;;;10.00;;
14076;SDS011;7114;51.100;13.998;2024-01-30T03:27:59;25.40;;;9.30;;
14076;SDS011;7114;51.100;13.998;2024-01-30T03:30:27;24.35;;;9.82;;
14076;SDS011;7114;51.100;13.998;2024-01-30T03:32:53;25.25;;;10.48;;
14076;SDS011;7114;51.100;13.998;2024-01-30T03:35:20;25.75;;;10.15;;
14076;SDS011;7114;51.100;13.998;2024-01-30T03:37:46;26.60;;;9.57;;
14076;SDS011;7114;51.100;13.998;2024-01-30T03:40:12;25.73;;;9.37;;
14076;SDS011;7114;51.100;13.998;2024-01-30T03:42:39;28.75;;;10.15;;
14076;SDS011;7114;51.100;13.998;2024-01-30T03:45:05;23.88;;;9.73;;
14076;SDS011;7114;51.100;13.998;2024-01-30T03:47:34;27.08;;;9.98;;
14076;SDS011;7114;51.100;13.998;2024-01-30T03:50:00;25.17;;;9.77;;
14076;SDS011;7114;51.100;13.998;2024-01-30T03:52:26;27.30;;;10.63;;
14076;SDS011;7114;51.100;13.998;2024-01-30T03:54:52;26.88;;;9.68;;
14076;SDS011;7114;51.100;13.998;2024-01-30T03:57:19;29.50;;;11.20;;
14076;SDS011;7114;51.100;13.998;2024-01-30T03:59:46;24.95;;;10.15;;
14076;SDS011;7114;51.100;13.998;2024-01-30T04:02:12;26.35;;;9.88;;
14076;SDS011;7114;51.100;13.998;2024-01-30T04:04:40;27.87;;;10.47;;
14076;SDS011;7114;51.100;13.998;2024-01-30T04:07:06;25.23;;;10.32;;
14076;SDS011;7114;51.100;13.998;2024-01-30T04:09:32;25.65;;;10.60;;
14076;SDS011;7114;51.100;13.998;2024-01-30T04:11:58;25.38;;;10.10;;
14076;SDS011;7114;51.100;13.998;2024-01-30T04:14:25;28.45;;;10.52;;
14076;SDS011;7114;51.100;13.998;2024-01-30T04:16:51;27.20;;;10.73;;
14076;SDS011;7114;51.100;13.998;2024-01-30T04:19:17;28.08;;;10.30;;
14076;SDS011;7114;51.100;13.998;2024-01-30T04:21:45;27.23;;;9.88;;
14076;SDS011;7114;51.100;13.998;2024-01-30T04:24:11;27.85;;;10.43;;
14076;SDS011;7114;51.100;13.998;2024-01-30T04:26:37;25.85;;;10.20;;
14076;SDS011;7114;51.100;13.998;2024-01-30T04:29:04;26.70;;;10.03;;
14076;SDS011;7114;51.100;13.998;2024-01-30T04:31:30;29.10;;;10.00;;
14076;SDS011;7114;51.100;13.998;2024-01-30T04:33:56;25.42;;;10.18;;
14076;SDS011;7114;51.100;13.998;2024-01-30T04:36:22;27.85;;;9.88;;
14076;SDS011;7114;51.100;13.998;2024-01-30T04:38:50;26.15;;;10.02;;
14076;SDS011;7114;51.100;13.998;2024-01-30T04:41:16;23.87;;;9.43;;
14076;SDS011;7114;51.100;13.998;2024-01-30T04:43:43;28.67;;;10.25;;
14076;SDS011;7114;51.100;13.998;2024-01-30T04:46:09;24.27;;;9.98;;
14076;SDS011;7114;51.100;13.998;2024-01-30T04:48:35;24.15;;;9.18;;
14076;SDS011;7114;51.100;13.998;2024-01-30T04:51:02;25.13;;;9.93;;
14076;SDS011;7114;51.100;13.998;2024-01-30T04:53:29;25.27;;;9.77;;
14076;SDS011;7114;51.100;13.998;2024-01-30T04:55:57;26.95;;;9.77;;
14076;SDS011;7114;51.100;13.998;2024-01-30T04:58:23;25.70;;;10.02;;
14076;SDS011;7114;51.100;13.998;2024-01-30T05:00:49;23.48;;;9.75;;
14076;SDS011;7114;51.100;13.998;2024-01-30T05:03:16;24.50;;;9.73;;
14076;SDS011;7114;51.100;13.998;2024-01-30T05:05:43;26.03;;;9.27;;
14076;SDS011;7114;51.100;13.998;2024-01-30T05:08:09;23.70;;;9.30;;
14076;SDS011;7114;51.100;13.998;2024-01-30T05:10:35;24.55;;;9.27;;
14076;SDS011;7114;51.100;13.998;2024-01-30T05:13:03;23.05;;;9.27;;
14076;SDS011;7114;51.100;13.998;2024-01-30T05:15:29;25.63;;;9.63;;
14076;SDS011;7114;51.100;13.998;2024-01-30T05:17:56;24.87;;;9.37;;
14076;SDS011;7114;51.100;13.998;2024-01-30T05:20:22;25.55;;;9.68;;
14076;SDS011;7114;51.100;13.998;2024-01-30T05:22:48;23.70;;;9.48;;
14076;SDS011;7114;51.100;13.998;2024-01-30T05:25:14;26.17;;;9.80;;
14076;SDS011;7114;51.100;13.998;2024-01-30T05:27:41;24.45;;;9.60;;
14076;SDS011;7114;51.100;13.998;2024-01-30T05:30:09;28.07;;;9.63;;
14076;SDS011;7114;51.100;13.998;2024-01-30T05:32:36;25.60;;;9.27;;
14076;SDS011;7114;51.100;13.998;2024-01-30T05:35:02;26.30;;;10.00;;
14076;SDS011;7114;51.100;13.998;2024-01-30T05:37:29;23.50;;;9.68;;
14076;SDS011;7114;51.100;13.998;2024-01-30T05:39:55;25.58;;;9.40;;
14076;SDS011;7114;51.100;13.998;2024-01-30T05:42:22;23.63;;;9.53;;
14076;SDS011;7114;51.100;13.998;2024-01-30T05:44:48;27.83;;;9.43;;
14076;SDS011;7114;51.100;13.998;2024-01-30T05:47:16;26.50;;;9.88;;
14076;SDS011;7114;51.100;13.998;2024-01-30T05:49:42;24.58;;;10.07;;
14076;SDS011;7114;51.100;13.998;2024-01-30T05:52:09;24.15;;;9.38;;
14076;SDS011;7114;51.100;13.998;2024-01-30T05:54:35;24.67;;;9.47;;
14076;SDS011;7114;51.100;13.998;2024-01-30T05:57:02;24.65;;;9.60;;
14076;SDS011;7114;51.100;13.998;2024-01-30T05:59:28;28.40;;;10.25;;
14076;SDS011;7114;51.100;13.998;2024-01-30T06:01:55;25.30;;;9.90;;
14076;SDS011;7114;51.100;13.998;2024-01-30T06:04:22;25.77;;;10.27;;
14076;SDS011;7114;51.100;13.998;2024-01-30T06:06:49;30.77;;;10.47;;
14076;SDS011;7114;51.100;13.998;2024-01-30T06:09:15;25.92;;;9.68;;
14076;SDS011;7114;51.100;13.998;2024-01-30T06:11:41;29.20;;;10.52;;
14076;SDS011;7114;51.100;13.998;2024-01-30T06:14:08;26.50;;;9.98;;
14076;SDS011;7114;51.100;13.998;2024-01-30T06:16:34;27.05;;;9.48;;
14076;SDS011;7114;51.100;13.998;2024-01-30T06:19:00;27.97;;;9.70;;
14076;SDS011;7114;51.100;13.998;2024-01-30T06:21:28;23.77;;;9.82;;
14076;SDS011;7114;51.100;13.998;2024-01-30T06:23:55;28.48;;;9.75;;
14076;SDS011;7114;51.100;13.998;2024-01-30T06:26:21;27.55;;;10.45;;
14076;SDS011;7114;51.100;13.998;2024-01-30T06:28:48;24.70;;;9.90;;
14076;SDS011;7114;51.100;13.998;2024-01-30T06:31:14;24.97;;;9.80;;
14076;SDS011;7114;51.100;13.998;2024-01-30T06:33:40;24.08;;;10.20;;
14076;SDS011;7114;51.100;13.998;2024-01-30T06:36:08;25.45;;;9.98;;
14076;SDS011;7114;51.100;13.998;2024-01-30T06:38:35;25.45;;;9.63;;
14076;SDS011;7114;51.100;13.998;2024-01-30T06:41:01;25.55;;;9.63;;
14076;SDS011;7114;51.100;13.998;2024-01-30T06:43:28;23.30;;;9.67;;
14076;SDS011;7114;51.100;13.998;2024-01-30T06:45:54;29.08;;;10.13;;
14076;SDS011;7114;51.100;13.998;2024-01-30T06:48:20;27.83;;;9.95;;
14076;SDS011;7114;51.100;13.998;2024-01-30T06:50:46;26.40;;;10.43;;
14076;SDS011;7114;51.100;13.998;2024-01-30T06:53:16;26.65;;;9.98;;
14076;SDS011;7114;51.100;13.998;2024-01-30T06:55:44;26.63;;;9.47;;
14076;SDS011;7114;51.100;13.998;2024-01-30T06:58:10;25.48;;;9.95;;
14076;SDS011;7114;51.100;13.998;2024-01-30T07:00:37;24.50;;;9.38;;
14076;SDS011;7114;51.100;13.998;2024-01-30T07:03:03;26.38;;;9.63;;
14076;SDS011;7114;51.100;13.998;2024-01-30T07:05:30;25.65;;;9.27;;
14076;SDS011;7114;51.100;13.998;2024-01-30T07:07:56;29.43;;;11.00;;
14076;SDS011;7114;51.100;13.998;2024-01-30T07:10:23;26.48;;;10.35;;
14076;SDS011;7114;51.100;13.998;2024-01-30T07:12:50;24.83;;;9.55;;
14076;SDS011;7114;51.100;13.998;2024-01-30T07:15:16;23.88;;;9.77;;
14076;SDS011;7114;51.100;13.998;2024-01-30T07:17:45;28.75;;;10.32;;
14076;SDS011;7114;51.100;13.998;2024-01-30T07:20:11;30.13;;;10.20;;
14076;SDS011;7114;51.100;13.998;2024-01-30T07:22:38;25.27;;;9.65;;
14076;SDS011;7114;51.100;13.998;2024-01-30T07:25:04;26.27;;;10.25;;
14076;SDS011;7114;51.100;13.998;2024-01-30T07:27:31;24.23;;;10.13;;
14076;SDS011;7114;51.100;13.998;2024-01-30T07:29:59;26.15;;;9.65;;
14076;SDS011;7114;51.100;13.998;2024-01-30T07:32:25;25.27;;;9.73;;
14076;SDS011;7114;51.100;13.998;2024-01-30T07:34:51;26.23;;;10.02;;
14076;SDS011;7114;51.100;13.998;2024-01-30T07:37:18;25.85;;;9.40;;
14076;SDS011;7114;51.100;13.998;2024-01-30T07:39:44;26.20;;;9.93;;
14076;SDS011;7114;51.100;13.998;2024-01-30T07:42:10;24.75;;;10.07;;
14076;SDS011;7114;51.100;13.998;2024-01-30T07:44:37;24.67;;;9.93;;
14076;SDS011;7114;51.100;13.998;2024-01-30T07:47:04;26.17;;;9.68;;
14076;SDS011;7114;51.100;13.998;2024-01-30T07:49:31;25.27;;;9.90;;
14076;SDS011;7114;51.100;13.998;2024-01-30T07:51:57;23.23;;;10.20;;
14076;SDS011;7114;51.100;13.998;2024-01-30T07:54:23;25.27;;;10.02;;
14076;SDS011;7114;51.100;13.998;2024-01-30T07:56:50;24.70;;;9.40;;
14076;SDS011;7114;51.100;13.998;2024-01-30T07:59:16;22.52;;;9.82;;
14076;SDS011;7114;51.100;13.998;2024-01-30T08:01:44;23.90;;;9.80;;
14076;SDS011;7114;51.100;13.998;2024-01-30T08:04:12;23.48;;;9.88;;
14076;SDS011;7114;51.100;13.998;2024-01-30T08:06:38;23.77;;;9.52;;
14076;SDS011;7114;51.100;13.998;2024-01-30T08:09:04;23.83;;;9.53;;
14076;SDS011;7114;51.100;13.998;2024-01-30T08:11:32;22.98;;;10.73;;
14076;SDS011;7114;51.100;13.998;2024-01-30T08:13:58;25.23;;;9.77;;
14076;SDS011;7114;51.100;13.998;2024-01-30T08:16:24;22.55;;;9.25;;
14076;SDS011;7114;51.100;13.998;2024-01-30T08:18:51;21.83;;;8.88;;
14076;SDS011;7114;51.100;13.998;2024-01-30T08:21:19;22.10;;;9.13;;
14076;SDS011;7114;51.100;13.998;2024-01-30T08:23:46;24.45;;;9.52;;
14076;SDS011;7114;51.100;13.998;2024-01-30T08:26:12;23.63;;;9.10;;
14076;SDS011;7114;51.100;13.998;2024-01-30T08:28:39;25.55;;;9.55;;
14076;SDS011;7114;51.100;13.998;2024-01-30T08:31:05;25.85;;;9.50;;
14076;SDS011;7114;51.100;13.998;2024-01-30T08:33:31;25.13;;;9.50;;
14076;SDS011;7114;51.100;13.998;2024-01-30T08:35:58;22.67;;;9.40;;
14076;SDS011;7114;51.100;13.998;2024-01-30T08:38:25;24.13;;;9.77;;
14076;SDS011;7114;51.100;13.998;2024-01-30T08:40:51;25.13;;;9.90;;
14076;SDS011;7114;51.100;13.998;2024-01-30T08:43:18;22.73;;;9.07;;
14076;SDS011;7114;51.100;13.998;2024-01-30T08:45:44;22.73;;;9.43;;
14076;SDS011;7114;51.100;13.998;2024-01-30T08:48:10;24.88;;;9.18;;
14076;SDS011;7114;51.100;13.998;2024-01-30T08:50:36;21.08;;;8.98;;
14076;SDS011;7114;51.100;13.998;2024-01-30T08:53:03;21.95;;;9.35;;
14076;SDS011;7114;51.100;13.998;2024-01-30T08:55:31;24.35;;;9.57;;
14076;SDS011;7114;51.100;13.998;2024-01-30T08:57:57;23.70;;;9.47;;
14076;SDS011;7114;51.100;13.998;2024-01-30T09:00:24;24.58;;;9.68;;
14076;SDS011;7114;51.100;13.998;2024-01-30T09:02:50;24.83;;;9.43;;
14076;SDS011;7114;51.100;13.998;2024-01-30T09:05:17;24.75;;;9.80;;
14076;SDS011;7114;51.100;13.998;2024-01-30T09:07:43;22.75;;;9.27;;
14076;SDS011;7114;51.100;13.998;2024-01-30T09:10:10;22.13;;;9.40;;
14076;SDS011;7114;51.100;13.998;2024-01-30T09:12:38;26.30;;;9.63;;
14076;SDS011;7114;51.100;13.998;2024-01-30T09:15:05;23.85;;;9.30;;
14076;SDS011;7114;51.100;13.998;2024-01-30T09:17:31;24.63;;;9.75;;
14076;SDS011;7114;51.100;13.998;2024-01-30T09:19:58;24.60;;;10.05;;
14076;SDS011;7114;51.100;13.998;2024-01-30T09:22:24;24.13;;;10.13;;
14076;SDS011;7114;51.100;13.998;2024-01-30T09:24:50;22.35;;;9.52;;
14076;SDS011;7114;51.100;13.998;2024-01-30T09:27:17;22.70;;;9.70;;
14076;SDS011;7114;51.100;13.998;2024-01-30T09:29:44;24.42;;;9.77;;
14076;SDS011;7114;51.100;13.998;2024-01-30T09:32:11;22.20;;;9.38;;
14076;SDS011;7114;51.100;13.998;2024-01-30T09:34:37;23.43;;;9.60;;
14076;SDS011;7114;51.100;13.998;2024-01-30T09:37:04;24.85;;;10.25;;
14076;SDS011;7114;51.100;13.998;2024-01-30T09:39:30;25.15;;;10.35;;
14076;SDS011;7114;51.100;13.998;2024-01-30T09:42:00;25.05;;;9.90;;
14076;SDS011;7114;51.100;13.998;2024-01-30T09:44:29;22.95;;;9.82;;
14076;SDS011;7114;51.100;13.998;2024-01-30T09:46:57;23.33;;;9.97;;
14076;SDS011;7114;51.100;13.998;2024-01-30T09:49:28;22.40;;;9.27;;
14076;SDS011;7114;51.100;13.998;2024-01-30T09:51:55;23.40;;;10.23;;
14076;SDS011;7114;51.100;13.998;2024-01-30T09:54:22;25.23;;;10.15;;
14076;SDS011;7114;51.100;13.998;2024-01-30T09:56:49;22.83;;;10.05;;
14076;SDS011;7114;51.100;13.998;2024-01-30T09:59:15;23.57;;;10.30;;
14076;SDS011;7114;51.100;13.998;2024-01-30T10:01:42;23.85;;;10.65;;
14076;SDS011;7114;51.100;13.998;2024-01-30T10:04:10;22.98;;;10.20;;
14076;SDS011;7114;51.100;13.998;2024-01-30T10:06:37;24.70;;;10.32;;
14076;SDS011;7114;51.100;13.998;2024-01-30T10:09:03;24.52;;;10.32;;
14076;SDS011;7114;51.100;13.998;2024-01-30T10:11:30;21.87;;;9.90;;
14076;SDS011;7114;51.100;13.998;2024-01-30T10:13:56;24.33;;;10.05;;
14076;SDS011;7114;51.100;13.998;2024-01-30T10:16:22;24.50;;;10.10;;
14076;SDS011;7114;51.100;13.998;2024-01-30T10:18:49;24.52;;;10.25;;
14076;SDS011;7114;51.100;13.998;2024-01-30T10:21:16;23.92;;;10.32;;
14076;SDS011;7114;51.100;13.998;2024-01-30T10:23:43;24.17;;;10.50;;
14076;SDS011;7114;51.100;13.998;2024-01-30T10:26:09;22.25;;;10.18;;
14076;SDS011;7114;51.100;13.998;2024-01-30T10:28:35;22.98;;;10.60;;
14076;SDS011;7114;51.100;13.998;2024-01-30T10:31:02;25.30;;;10.43;;
14076;SDS011;7114;51.100;13.998;2024-01-30T10:33:29;22.05;;;9.82;;
14076;SDS011;7114;51.100;13.998;2024-01-30T10:35:56;23.47;;;10.37;;
14076;SDS011;7114;51.100;13.998;2024-01-30T10:38:28;23.92;;;10.30;;
14076;SDS011;7114;51.100;13.998;2024-01-30T10:40:55;20.38;;;9.73;;
14076;SDS011;7114;51.100;13.998;2024-01-30T10:43:22;23.92;;;10.75;;
14076;SDS011;7114;51.100;13.998;2024-01-30T10:45:49;22.67;;;10.07;;
14076;SDS011;7114;51.100;13.998;2024-01-30T10:48:19;23.00;;;10.37;;
14076;SDS011;7114;51.100;13.998;2024-01-30T10:50:48;24.05;;;10.75;;
14076;SDS011;7114;51.100;13.998;2024-01-30T10:53:16;21.95;;;9.52;;
14076;SDS011;7114;51.100;13.998;2024-01-30T10:55:45;23.23;;;10.43;;
14076;SDS011;7114;51.100;13.998;2024-01-30T10:58:13;24.58;;;11.40;;
14076;SDS011;7114;51.100;13.998;2024-01-30T11:00:40;25.63;;;10.90;;
14076;SDS011;7114;51.100;13.998;2024-01-30T11:03:06;23.35;;;10.95;;
14076;SDS011;7114;51.100;13.998;2024-01-30T11:05:34;23.67;;;10.63;;
14076;SDS011;7114;51.100;13.998;2024-01-30T11:08:09;23.65;;;10.95;;
14076;SDS011;7114;51.100;13.998;2024-01-30T11:10:45;25.45;;;10.45;;
14076;SDS011;7114;51.100;13.998;2024-01-30T11:13:13;23.53;;;11.00;;
14076;SDS011;7114;51.100;13.998;2024-01-30T11:15:39;25.70;;;11.10;;
14076;SDS011;7114;51.100;13.998;2024-01-30T11:18:06;23.88;;;10.75;;
14076;SDS011;7114;51.100;13.998;2024-01-30T11:20:32;24.15;;;11.27;;
14076;SDS011;7114;51.100;13.998;2024-01-30T11:23:01;21.30;;;10.10;;
14076;SDS011;7114;51.100;13.998;2024-01-30T11:25:31;25.00;;;10.70;;
14076;SDS011;7114;51.100;13.998;2024-01-30T11:27:59;23.40;;;10.75;;
14076;SDS011;7114;51.100;13.998;2024-01-30T11:30:26;24.10;;;11.50;;
14076;SDS011;7114;51.100;13.998;2024-01-30T11:33:00;25.73;;;11.35;;
14076;SDS011;7114;51.100;13.998;2024-01-30T11:35:27;22.20;;;10.35;;
14076;SDS011;7114;51.100;13.998;2024-01-30T11:37:55;24.57;;;10.90;;
14076;SDS011;7114;51.100;13.998;2024-01-30T11:40:23;23.40;;;10.57;;
14076;SDS011;7114;51.100;13.998;2024-01-30T11:42:51;23.38;;;10.68;;
14076;SDS011;7114;51.100;13.998;2024-01-30T11:45:19;24.85;;;10.50;;
14076;SDS011;7114;51.100;13.998;2024-01-30T11:47:45;25.60;;;10.93;;
14076;SDS011;7114;51.100;13.998;2024-01-30T11:50:11;23.90;;;10.73;;
14076;SDS011;7114;51.100;13.998;2024-01-30T11:52:38;22.50;;;10.73;;
14076;SDS011;7114;51.100;13.998;2024-01-30T11:55:04;23.45;;;10.52;;
14076;SDS011;7114;51.100;13.998;2024-01-30T11:57:31;25.08;;;10.18;;
14076;SDS011;7114;51.100;13.998;2024-01-30T11:59:59;23.23;;;10.23;;
14076;SDS011;7114;51.100;13.998;2024-01-30T12:02:27;29.77;;;11.63;;
14076;SDS011;7114;51.100;13.998;2024-01-30T12:04:53;25.15;;;10.60;;
14076;SDS011;7114;51.100;13.998;2024-01-30T12:07:19;24.80;;;10.95;;
14076;SDS011;7114;51.100;13.998;2024-01-30T12:09:51;25.85;;;10.75;;
14076;SDS011;7114;51.100;13.998;2024-01-30T12:12:18;24.80;;;10.45;;
14076;SDS011;7114;51.100;13.998;2024-01-30T12:14:44;27.47;;;11.17;;
14076;SDS011;7114;51.100;13.998;2024-01-30T12:17:11;27.70;;;11.27;;
14076;SDS011;7114;51.100;13.998;2024-01-30T12:19:50;24.67;;;10.10;;
14076;SDS011;7114;51.100;13.998;2024-01-30T12:22:19;26.77;;;10.85;;
14076;SDS011;7114;51.100;13.998;2024-01-30T12:24:45;26.00;;;11.27;;
14076;SDS011;7114;51.100;13.998;2024-01-30T12:27:14;25.80;;;11.23;;
14076;SDS011;7114;51.100;13.998;2024-01-30T12:29:41;25.50;;;10.80;;
14076;SDS011;7114;51.100;13.998;2024-01-30T12:32:07;28.55;;;11.30;;
14076;SDS011;7114;51.100;13.998;2024-01-30T12:34:34;25.55;;;10.90;;
14076;SDS011;7114;51.100;13.998;2024-01-30T12:37:01;25.83;;;10.90;;
14076;SDS011;7114;51.100;13.998;2024-01-30T12:39:28;28.07;;;11.50;;
14076;SDS011;7114;51.100;13.998;2024-01-30T12:41:55;24.60;;;10.93;;
14076;SDS011;7114;51.100;13.998;2024-01-30T12:44:21;26.05;;;10.70;;
14076;SDS011;7114;51.100;13.998;2024-01-30T12:46:48;27.45;;;11.05;;
14076;SDS011;7114;51.100;13.998;2024-01-30T12:49:14;27.48;;;10.88;;
14076;SDS011;7114;51.100;13.998;2024-01-30T12:51:41;28.73;;;12.07;;
14076;SDS011;7114;51.100;13.998;2024-01-30T12:54:08;26.92;;;11.00;;
14076;SDS011;7114;51.100;13.998;2024-01-30T12:56:34;27.27;;;11.30;;
14076;SDS011;7114;51.100;13.998;2024-01-30T12:59:01;29.10;;;12.15;;
14076;SDS011;7114;51.100;13.998;2024-01-30T13:01:27;28.38;;;11.63;;
14076;SDS011;7114;51.100;13.998;2024-01-30T13:03:54;26.70;;;11.07;;
14076;SDS011;7114;51.100;13.998;2024-01-30T13:06:22;27.35;;;11.43;;
14076;SDS011;7114;51.100;13.998;2024-01-30T13:08:48;25.85;;;11.05;;
14076;SDS011;7114;51.100;13.998;2024-01-30T13:11:16;27.45;;;11.43;;
14076;SDS011;7114;51.100;13.998;2024-01-30T13:13:42;26.55;;;10.77;;
14076;SDS011;7114;51.100;13.998;2024-01-30T13:16:09;26.17;;;10.43;;
14076;SDS011;7114;51.100;13.998;2024-01-30T13:18:35;26.88;;;11.25;;
14076;SDS011;7114;51.100;13.998;2024-01-30T13:21:01;26.65;;;11.40;;
14076;SDS011;7114;51.100;13.998;2024-01-30T13:23:28;27.50;;;11.45;;
14076;SDS011;7114;51.100;13.998;2024-01-30T13:25:54;25.75;;;10.93;;
14076;SDS011;7114;51.100;13.998;2024-01-30T13:28:24;27.03;;;11.10;;
14076;SDS011;7114;51.100;13.998;2024-01-30T13:30:51;29.10;;;12.10;;
14076;SDS011;7114;51.100;13.998;2024-01-30T13:33:17;30.58;;;11.43;;
14076;SDS011;7114;51.100;13.998;2024-01-30T13:35:43;24.67;;;10.68;;
14076;SDS011;7114;51.100;13.998;2024-01-30T13:38:09;27.35;;;11.45;;
14076;SDS011;7114;51.100;13.998;2024-01-30T13:40:36;28.40;;;11.37;;
14076;SDS011;7114;51.100;13.998;2024-01-30T13:43:02;25.85;;;10.98;;
14076;SDS011;7114;51.100;13.998;2024-01-30T13:45:30;30.70;;;11.30;;
14076;SDS011;7114;51.100;13.998;2024-01-30T13:47:56;29.40;;;11.50;;
14076;SDS011;7114;51.100;13.998;2024-01-30T13:50:24;24.38;;;11.57;;
14076;SDS011;7114;51.100;13.998;2024-01-30T13:52:50;29.00;;;11.33;;
14076;SDS011;7114;51.100;13.998;2024-01-30T13:55:16;27.85;;;10.82;;
14076;SDS011;7114;51.100;13.998;2024-01-30T13:57:43;28.33;;;11.05;;
14076;SDS011;7114;51.100;13.998;2024-01-30T14:00:09;27.25;;;10.77;;
14076;SDS011;7114;51.100;13.998;2024-01-30T14:02:38;24.98;;;10.52;;
14076;SDS011;7114;51.100;13.998;2024-01-30T14:05:05;26.37;;;11.37;;
14076;SDS011;7114;51.100;13.998;2024-01-30T14:07:31;25.80;;;10.90;;
14076;SDS011;7114;51.100;13.998;2024-01-30T14:09:57;30.25;;;11.05;;
14076;SDS011;7114;51.100;13.998;2024-01-30T14:12:24;25.17;;;10.88;;
14076;SDS011;7114;51.100;13.998;2024-01-30T14:14:50;27.25;;;11.13;;
14076;SDS011;7114;51.100;13.998;2024-01-30T14:17:16;27.13;;;10.77;;
14076;SDS011;7114;51.100;13.998;2024-01-30T14:19:44;26.55;;;10.57;;
14076;SDS011;7114;51.100;13.998;2024-01-30T14:22:10;26.08;;;10.63;;
14076;SDS011;7114;51.100;13.998;2024-01-30T14:24:37;27.23;;;11.23;;
14076;SDS011;7114;51.100;13.998;2024-01-30T14:27:03;28.95;;;10.98;;